VPCOH OOMS-LRCL
Flight info
| Callsign | VPCOH |
|---|---|
| Flight time | N/A |
| Altitude | 36000 |
| Route | MCT T508 SOLUD P574 GISMO/N0472F340 P574 NORGA/N0470F350 R401 GABKO/N0468F360 M317 ROTAL P574 SYZ P550 RASLA/N0462F380 P550 DASIS UL746 INB/N0460F400 UL746 ODERO L621 REVDA DCT RIPGA DCT DOKUD |
| Aircraft | B738/M-SDE2E3FGHIRWXY/LB1 |
Departure
| Time | N/A |
|---|---|
| Airport | Muscat International Airport (OOMS) |
Arrival
| Time | 2026-05-06 20:32 |
|---|---|
| Airport | Avram Iancu Cluj International Airport (LRCL) |
| Time | Latitude | Longitude | Altitude | Speed | Heading |
|---|---|---|---|---|---|
| 2026-05-06 19:31 | 43.36244 | 29.51949 | 36112 ft | 431 kts | 325° |
| 2026-05-06 19:32 | 43.41086 | 29.47072 | 36113 ft | 431 kts | 325° |
| 2026-05-06 19:32 | 43.45921 | 29.42192 | 36113 ft | 431 kts | 325° |
| 2026-05-06 19:33 | 43.50753 | 29.37306 | 36118 ft | 431 kts | 325° |
| 2026-05-06 19:33 | 43.55614 | 29.32380 | 36511 ft | 433 kts | 325° |
| 2026-05-06 19:34 | 43.58037 | 29.29920 | 36925 ft | 430 kts | 325° |
| 2026-05-06 19:34 | 43.60438 | 29.27480 | 37290 ft | 428 kts | 325° |
| 2026-05-06 19:34 | 43.62846 | 29.25031 | 37561 ft | 429 kts | 325° |
| 2026-05-06 19:34 | 43.65216 | 29.22618 | 37803 ft | 429 kts | 325° |
| 2026-05-06 19:35 | 43.67616 | 29.20173 | 38089 ft | 428 kts | 324° |
| 2026-05-06 19:35 | 43.70019 | 29.17722 | 38095 ft | 431 kts | 325° |
| 2026-05-06 19:35 | 43.74911 | 29.12919 | 38111 ft | 428 kts | 329° |
| 2026-05-06 19:36 | 43.80008 | 29.08674 | 38107 ft | 426 kts | 330° |
| 2026-05-06 19:36 | 43.85089 | 29.04544 | 38109 ft | 425 kts | 330° |
| 2026-05-06 19:37 | 43.90163 | 29.00373 | 38108 ft | 424 kts | 330° |
| 2026-05-06 19:37 | 43.94383 | 28.96872 | 38106 ft | 424 kts | 330° |
| 2026-05-06 19:38 | 44.00286 | 28.91949 | 38104 ft | 424 kts | 330° |
| 2026-05-06 19:38 | 44.05379 | 28.87690 | 37765 ft | 431 kts | 330° |
| 2026-05-06 19:39 | 44.07915 | 28.85566 | 37498 ft | 429 kts | 330° |
| 2026-05-06 19:39 | 44.10467 | 28.83426 | 37229 ft | 427 kts | 330° |
| 2026-05-06 19:39 | 44.13007 | 28.81294 | 36969 ft | 426 kts | 330° |
| 2026-05-06 19:39 | 44.15549 | 28.79159 | 36709 ft | 425 kts | 330° |
| 2026-05-06 19:40 | 44.18075 | 28.77035 | 36441 ft | 422 kts | 330° |
| 2026-05-06 19:40 | 44.20589 | 28.74919 | 36187 ft | 421 kts | 330° |
| 2026-05-06 19:40 | 44.23095 | 28.72808 | 35927 ft | 420 kts | 330° |
| 2026-05-06 19:40 | 44.25591 | 28.70702 | 35688 ft | 419 kts | 330° |
| 2026-05-06 19:41 | 44.28085 | 28.68598 | 35441 ft | 419 kts | 330° |
| 2026-05-06 19:41 | 44.30578 | 28.66491 | 35197 ft | 418 kts | 330° |
| 2026-05-06 19:41 | 44.33045 | 28.64404 | 34955 ft | 418 kts | 330° |
| 2026-05-06 19:41 | 44.35568 | 28.62268 | 34714 ft | 419 kts | 330° |
| 2026-05-06 19:42 | 44.38028 | 28.60183 | 34475 ft | 419 kts | 330° |
| 2026-05-06 19:42 | 44.40528 | 28.58062 | 34246 ft | 420 kts | 330° |
| 2026-05-06 19:42 | 44.45567 | 28.53781 | 34113 ft | 426 kts | 329° |
| 2026-05-06 19:43 | 44.49761 | 28.50211 | 34095 ft | 423 kts | 329° |
| 2026-05-06 19:43 | 44.54771 | 28.45937 | 34097 ft | 422 kts | 329° |
| 2026-05-06 19:44 | 44.59784 | 28.41653 | 34097 ft | 422 kts | 329° |
| 2026-05-06 19:44 | 44.64810 | 28.37349 | 34095 ft | 422 kts | 329° |
| 2026-05-06 19:45 | 44.69845 | 28.33028 | 34100 ft | 427 kts | 329° |
| 2026-05-06 19:45 | 44.74953 | 28.28636 | 34093 ft | 431 kts | 329° |
| 2026-05-06 19:46 | 44.80051 | 28.24242 | 34085 ft | 431 kts | 329° |
| 2026-05-06 19:46 | 44.85165 | 28.19825 | 34085 ft | 430 kts | 329° |
| 2026-05-06 19:47 | 44.90104 | 28.15551 | 34087 ft | 430 kts | 329° |
| 2026-05-06 19:47 | 44.95199 | 28.11132 | 34080 ft | 430 kts | 329° |
| 2026-05-06 19:48 | 45.00289 | 28.06709 | 34081 ft | 429 kts | 329° |
| 2026-05-06 19:48 | 45.05375 | 28.02279 | 34076 ft | 429 kts | 329° |
| 2026-05-06 19:49 | 45.10458 | 27.97843 | 34074 ft | 429 kts | 329° |
| 2026-05-06 19:49 | 45.15507 | 27.93427 | 34081 ft | 428 kts | 328° |
| 2026-05-06 19:50 | 45.20037 | 27.87946 | 34076 ft | 431 kts | 313° |
| 2026-05-06 19:50 | 45.23513 | 27.80981 | 34074 ft | 433 kts | 305° |
| 2026-05-06 19:51 | 45.26737 | 27.73760 | 34072 ft | 433 kts | 304° |
| 2026-05-06 19:51 | 45.29968 | 27.66530 | 34071 ft | 432 kts | 305° |
| 2026-05-06 19:52 | 45.33189 | 27.59370 | 34070 ft | 432 kts | 305° |
| 2026-05-06 19:52 | 45.36430 | 27.52179 | 34077 ft | 432 kts | 305° |
| 2026-05-06 19:53 | 45.39667 | 27.44985 | 34077 ft | 431 kts | 305° |
| 2026-05-06 19:53 | 45.42897 | 27.37789 | 34071 ft | 431 kts | 305° |
| 2026-05-06 19:54 | 45.46116 | 27.30595 | 34064 ft | 430 kts | 304° |
| 2026-05-06 19:54 | 45.49303 | 27.23457 | 34070 ft | 429 kts | 304° |
| 2026-05-06 19:55 | 45.52506 | 27.16265 | 34066 ft | 429 kts | 304° |
| 2026-05-06 19:55 | 45.55702 | 27.09068 | 34068 ft | 429 kts | 304° |
| 2026-05-06 19:56 | 45.58889 | 27.01875 | 34062 ft | 428 kts | 304° |
| 2026-05-06 19:56 | 45.62062 | 26.94695 | 34072 ft | 427 kts | 304° |
| 2026-05-06 19:57 | 45.65233 | 26.87500 | 34068 ft | 428 kts | 304° |
| 2026-05-06 19:57 | 45.68401 | 26.80294 | 34063 ft | 428 kts | 304° |
| 2026-05-06 19:58 | 45.71540 | 26.73136 | 34068 ft | 428 kts | 303° |
| 2026-05-06 19:58 | 45.74695 | 26.65922 | 34069 ft | 427 kts | 303° |
| 2026-05-06 19:59 | 45.77849 | 26.58694 | 34073 ft | 427 kts | 303° |
| 2026-05-06 19:59 | 45.80996 | 26.51462 | 34074 ft | 427 kts | 303° |
| 2026-05-06 20:00 | 45.84138 | 26.44222 | 34065 ft | 427 kts | 303° |
| 2026-05-06 20:00 | 45.87248 | 26.37039 | 34065 ft | 427 kts | 303° |
| 2026-05-06 20:01 | 45.90376 | 26.29794 | 34065 ft | 427 kts | 303° |
| 2026-05-06 20:01 | 45.93502 | 26.22537 | 34061 ft | 427 kts | 303° |
| 2026-05-06 20:02 | 45.96626 | 26.15264 | 34047 ft | 427 kts | 303° |
| 2026-05-06 20:02 | 45.99723 | 26.08036 | 34050 ft | 427 kts | 303° |
| 2026-05-06 20:03 | 46.02833 | 26.00759 | 34047 ft | 427 kts | 303° |
| 2026-05-06 20:03 | 46.05939 | 25.93471 | 34041 ft | 426 kts | 303° |
| 2026-05-06 20:04 | 46.09044 | 25.86167 | 34036 ft | 427 kts | 303° |
| 2026-05-06 20:04 | 46.12126 | 25.78899 | 34036 ft | 426 kts | 302° |
| 2026-05-06 20:05 | 46.15214 | 25.71597 | 34037 ft | 426 kts | 302° |
| 2026-05-06 20:05 | 46.18279 | 25.64328 | 34031 ft | 426 kts | 302° |
| 2026-05-06 20:06 | 46.21354 | 25.57019 | 34026 ft | 426 kts | 302° |
| 2026-05-06 20:06 | 46.24421 | 25.49710 | 34030 ft | 425 kts | 302° |
| 2026-05-06 20:07 | 46.27489 | 25.42378 | 34016 ft | 426 kts | 302° |
| 2026-05-06 20:07 | 46.30551 | 25.35041 | 34017 ft | 426 kts | 302° |
| 2026-05-06 20:08 | 46.33611 | 25.27690 | 34009 ft | 426 kts | 302° |
| 2026-05-06 20:08 | 46.36640 | 25.20393 | 34014 ft | 425 kts | 302° |
| 2026-05-06 20:09 | 46.39685 | 25.13037 | 34012 ft | 425 kts | 302° |
| 2026-05-06 20:09 | 46.42726 | 25.05675 | 34004 ft | 425 kts | 302° |
| 2026-05-06 20:10 | 46.45713 | 24.98277 | 33992 ft | 426 kts | 296° |
| 2026-05-06 20:10 | 46.46664 | 24.94163 | 33466 ft | 435 kts | 282° |
| 2026-05-06 20:10 | 46.46830 | 24.89780 | 32724 ft | 435 kts | 270° |
| 2026-05-06 20:11 | 46.46648 | 24.85390 | 31857 ft | 436 kts | 268° |
| 2026-05-06 20:11 | 46.46447 | 24.81050 | 30962 ft | 437 kts | 269° |
| 2026-05-06 20:11 | 46.46410 | 24.76644 | 30022 ft | 437 kts | 278° |
| 2026-05-06 20:11 | 46.47144 | 24.72404 | 29282 ft | 430 kts | 291° |
| 2026-05-06 20:12 | 46.48229 | 24.68386 | 28573 ft | 424 kts | 292° |
| 2026-05-06 20:12 | 46.49346 | 24.64462 | 27917 ft | 419 kts | 292° |
| 2026-05-06 20:12 | 46.50456 | 24.60578 | 27250 ft | 414 kts | 292° |
| 2026-05-06 20:12 | 46.51539 | 24.56737 | 26605 ft | 410 kts | 292° |
| 2026-05-06 20:13 | 46.52606 | 24.52895 | 25963 ft | 407 kts | 291° |
| 2026-05-06 20:13 | 46.53650 | 24.49091 | 25338 ft | 403 kts | 291° |
| 2026-05-06 20:13 | 46.54679 | 24.45312 | 24716 ft | 401 kts | 291° |
| 2026-05-06 20:13 | 46.55699 | 24.41552 | 24094 ft | 399 kts | 291° |
| 2026-05-06 20:14 | 46.56702 | 24.37841 | 23439 ft | 398 kts | 291° |
| 2026-05-06 20:14 | 46.57713 | 24.34101 | 22725 ft | 396 kts | 291° |
| 2026-05-06 20:14 | 46.58715 | 24.30385 | 22065 ft | 393 kts | 291° |
| 2026-05-06 20:14 | 46.59709 | 24.26694 | 21425 ft | 390 kts | 291° |
| 2026-05-06 20:15 | 46.60684 | 24.23074 | 20812 ft | 387 kts | 290° |
| 2026-05-06 20:15 | 46.61666 | 24.19420 | 20206 ft | 384 kts | 290° |
| 2026-05-06 20:15 | 46.62636 | 24.15805 | 19608 ft | 382 kts | 291° |
| 2026-05-06 20:15 | 46.63946 | 24.12463 | 18997 ft | 382 kts | 309° |
| 2026-05-06 20:16 | 46.65890 | 24.09911 | 18440 ft | 380 kts | 324° |
| 2026-05-06 20:16 | 46.68099 | 24.07790 | 17764 ft | 380 kts | 327° |
| 2026-05-06 20:16 | 46.70323 | 24.05716 | 17128 ft | 378 kts | 326° |
| 2026-05-06 20:16 | 46.72529 | 24.03611 | 16506 ft | 375 kts | 325° |
| 2026-05-06 20:17 | 46.74669 | 24.01534 | 15933 ft | 373 kts | 324° |
| 2026-05-06 20:17 | 46.76605 | 23.99086 | 15335 ft | 368 kts | 306° |
| 2026-05-06 20:17 | 46.77856 | 23.95886 | 14765 ft | 361 kts | 287° |
| 2026-05-06 20:17 | 46.78427 | 23.92346 | 14224 ft | 356 kts | 278° |
| 2026-05-06 20:18 | 46.78831 | 23.88784 | 13624 ft | 355 kts | 277° |
| 2026-05-06 20:18 | 46.79232 | 23.85234 | 12996 ft | 353 kts | 277° |
| 2026-05-06 20:18 | 46.79647 | 23.81746 | 12399 ft | 350 kts | 278° |
| 2026-05-06 20:18 | 46.80088 | 23.78249 | 11801 ft | 350 kts | 280° |
| 2026-05-06 20:19 | 46.80727 | 23.74879 | 11600 ft | 342 kts | 285° |
| 2026-05-06 20:19 | 46.81470 | 23.71540 | 11312 ft | 345 kts | 286° |
| 2026-05-06 20:19 | 46.82217 | 23.68252 | 11030 ft | 336 kts | 286° |
| 2026-05-06 20:19 | 46.82931 | 23.65045 | 10745 ft | 327 kts | 285° |
| 2026-05-06 20:20 | 46.83610 | 23.61913 | 10476 ft | 320 kts | 285° |
| 2026-05-06 20:20 | 46.84256 | 23.58886 | 10207 ft | 313 kts | 285° |
| 2026-05-06 20:20 | 46.84895 | 23.55876 | 9963 ft | 307 kts | 285° |
| 2026-05-06 20:20 | 46.85391 | 23.52920 | 9900 ft | 290 kts | 270° |
| 2026-05-06 20:21 | 46.85181 | 23.50089 | 9664 ft | 279 kts | 253° |
| 2026-05-06 20:21 | 46.84592 | 23.47375 | 9257 ft | 279 kts | 249° |
| 2026-05-06 20:21 | 46.83957 | 23.44710 | 8968 ft | 275 kts | 248° |
| 2026-05-06 20:21 | 46.83341 | 23.42124 | 8728 ft | 270 kts | 249° |
| 2026-05-06 20:22 | 46.82735 | 23.39548 | 8481 ft | 265 kts | 249° |
| 2026-05-06 20:22 | 46.82149 | 23.37023 | 8272 ft | 261 kts | 249° |
| 2026-05-06 20:22 | 46.81568 | 23.34496 | 8057 ft | 260 kts | 249° |
| 2026-05-06 20:22 | 46.80994 | 23.31992 | 7846 ft | 259 kts | 249° |
| 2026-05-06 20:23 | 46.80435 | 23.29555 | 7643 ft | 254 kts | 249° |
| 2026-05-06 20:23 | 46.79877 | 23.27122 | 7424 ft | 250 kts | 249° |
| 2026-05-06 20:23 | 46.79216 | 23.24835 | 7287 ft | 235 kts | 232° |
| 2026-05-06 20:23 | 46.78053 | 23.23351 | 7205 ft | 215 kts | 207° |
| 2026-05-06 20:24 | 46.76680 | 23.22693 | 7112 ft | 202 kts | 191° |
| 2026-05-06 20:24 | 46.75320 | 23.22700 | 7001 ft | 192 kts | 171° |
| 2026-05-06 20:24 | 46.74046 | 23.23258 | 6680 ft | 197 kts | 166° |
| 2026-05-06 20:24 | 46.72790 | 23.24005 | 6392 ft | 197 kts | 148° |
| 2026-05-06 20:25 | 46.71993 | 23.25584 | 6236 ft | 198 kts | 117° |
| 2026-05-06 20:25 | 46.71676 | 23.27550 | 6017 ft | 201 kts | 102° |
| 2026-05-06 20:25 | 46.71513 | 23.29583 | 5803 ft | 201 kts | 101° |
| 2026-05-06 20:25 | 46.71362 | 23.31575 | 5582 ft | 194 kts | 101° |
| 2026-05-06 20:26 | 46.71207 | 23.33495 | 5364 ft | 187 kts | 101° |
| 2026-05-06 20:26 | 46.71209 | 23.35364 | 5132 ft | 186 kts | 75° |
| 2026-05-06 20:26 | 46.71682 | 23.37109 | 5000 ft | 186 kts | 74° |
| 2026-05-06 20:26 | 46.72086 | 23.38919 | 4805 ft | 186 kts | 75° |
| 2026-05-06 20:27 | 46.72470 | 23.40651 | 4602 ft | 177 kts | 74° |
| 2026-05-06 20:27 | 46.72843 | 23.42317 | 4426 ft | 169 kts | 74° |
| 2026-05-06 20:27 | 46.73195 | 23.43875 | 4249 ft | 158 kts | 74° |
| 2026-05-06 20:27 | 46.73534 | 23.45372 | 4080 ft | 153 kts | 73° |
| 2026-05-06 20:28 | 46.73858 | 23.46807 | 3946 ft | 147 kts | 73° |
| 2026-05-06 20:28 | 46.74178 | 23.48226 | 3736 ft | 147 kts | 73° |
| 2026-05-06 20:28 | 46.74495 | 23.49622 | 3534 ft | 142 kts | 73° |
| 2026-05-06 20:28 | 46.74801 | 23.50973 | 3416 ft | 143 kts | 73° |
| 2026-05-06 20:29 | 46.75111 | 23.52345 | 3180 ft | 141 kts | 73° |
| 2026-05-06 20:29 | 46.75415 | 23.53690 | 2985 ft | 139 kts | 72° |
| 2026-05-06 20:29 | 46.75718 | 23.55030 | 2805 ft | 139 kts | 72° |
| 2026-05-06 20:29 | 46.76020 | 23.56364 | 2614 ft | 138 kts | 71° |
| 2026-05-06 20:30 | 46.76319 | 23.57683 | 2423 ft | 136 kts | 71° |
| 2026-05-06 20:30 | 46.76912 | 23.60302 | 2061 ft | 136 kts | 71° |
| 2026-05-06 20:30 | 46.77203 | 23.61591 | 1874 ft | 135 kts | 71° |
| 2026-05-06 20:31 | 46.77497 | 23.62895 | 1707 ft | 135 kts | 72° |
| 2026-05-06 20:31 | 46.77790 | 23.64193 | 1529 ft | 134 kts | 72° |
| 2026-05-06 20:31 | 46.77983 | 23.65049 | 1415 ft | 134 kts | 72° |
| 2026-05-06 20:31 | 46.78369 | 23.66763 | 1165 ft | 134 kts | 71° |
| 2026-05-06 20:32 | 46.78660 | 23.68045 | 1033 ft | 128 kts | 72° |
| 2026-05-06 20:32 | 46.78817 | 23.68752 | 1031 ft | 87 kts | 72° |
| 2026-05-06 20:32 | 46.78895 | 23.69146 | 1033 ft | 11 kts | 112° |
| 2026-05-06 20:32 | 46.78824 | 23.69201 | 1033 ft | 10 kts | 161° |
| 2026-05-06 20:33 | 46.78809 | 23.69209 | 1033 ft | 1 kts | 161° |
| 2026-05-06 20:33 | 46.78802 | 23.69212 | 1033 ft | 1 kts | 161° |
| 2026-05-06 20:33 | 46.78782 | 23.69222 | 1032 ft | 5 kts | 161° |
| 2026-05-06 20:33 | 46.78746 | 23.69239 | 1032 ft | 5 kts | 161° |
| 2026-05-06 20:34 | 46.78732 | 23.69246 | 1032 ft | 5 kts | 161° |
| 2026-05-06 20:34 | 46.78684 | 23.69270 | 1032 ft | 10 kts | 161° |
| 2026-05-06 20:34 | 46.78628 | 23.69297 | 1032 ft | 7 kts | 161° |
| 2026-05-06 20:34 | 46.78622 | 23.69300 | 1032 ft | 1 kts | 161° |
| 2026-05-06 20:35 | 46.78617 | 23.69303 | 1032 ft | 1 kts | 161° |
| 2026-05-06 20:35 | 46.78615 | 23.69304 | 1032 ft | 0 kts | 161° |
| 2026-05-06 20:35 | 46.78609 | 23.69307 | 1032 ft | 2 kts | 161° |
| 2026-05-06 20:36 | 46.78605 | 23.69309 | 1032 ft | 0 kts | 161° |
| 2026-05-06 20:39 | 46.78595 | 23.69314 | 1032 ft | 5 kts | 161° |
| 2026-05-06 20:39 | 46.78568 | 23.69328 | 1032 ft | 1 kts | 161° |
| 2026-05-06 20:39 | 46.78562 | 23.69331 | 1032 ft | 1 kts | 161° |
| 2026-05-06 20:40 | 46.78550 | 23.69337 | 1032 ft | 3 kts | 162° |
| 2026-05-06 20:40 | 46.78537 | 23.69340 | 1032 ft | 0 kts | 175° |
| 2026-05-06 20:41 | 46.78534 | 23.69341 | 1032 ft | 3 kts | 176° |
| 2026-05-06 20:41 | 46.78513 | 23.69343 | 1032 ft | 3 kts | 177° |
| 2026-05-06 20:41 | 46.78500 | 23.69320 | 1032 ft | 3 kts | 250° |
| 2026-05-06 20:41 | 46.78496 | 23.69290 | 1032 ft | 3 kts | 250° |
| 2026-05-06 20:42 | 46.78494 | 23.69282 | 1032 ft | 0 kts | 249° |
| 2026-05-06 20:42 | 46.78492 | 23.69276 | 1032 ft | 0 kts | 250° |